createdAt,value
2023-01-11T00:02:07.341Z,8.03
2023-01-11T00:04:34.229Z,8.14
2023-01-11T00:07:01.037Z,8.26
2023-01-11T00:09:27.702Z,8.34
2023-01-11T00:11:55.243Z,8.43
2023-01-11T00:14:22.461Z,8.55
2023-01-11T00:16:49.375Z,8.60
2023-01-11T00:19:16.138Z,8.61
2023-01-11T00:21:42.883Z,8.60
2023-01-11T00:24:09.489Z,8.65
2023-01-11T00:26:36.147Z,8.68
2023-01-11T00:29:02.810Z,8.66
2023-01-11T00:31:29.502Z,8.69
2023-01-11T00:33:57.061Z,8.76
2023-01-11T00:36:23.728Z,8.80
2023-01-11T00:38:55.338Z,8.81
2023-01-11T00:41:41.583Z,8.84
2023-01-11T00:44:29.541Z,8.90
2023-01-11T00:47:16.086Z,8.92
2023-01-11T00:49:43.942Z,9.01
2023-01-11T00:52:12.480Z,9.04
2023-01-11T00:54:40.806Z,9.06
2023-01-11T00:57:08.376Z,9.08
2023-01-11T00:59:36.189Z,9.10
2023-01-11T01:02:03.592Z,9.13
2023-01-11T01:04:30.309Z,9.12
2023-01-11T01:06:57.182Z,9.11
2023-01-11T01:09:23.881Z,9.12
2023-01-11T01:11:50.523Z,9.08
2023-01-11T01:14:26.290Z,9.08
2023-01-11T01:16:54.611Z,9.09
2023-01-11T01:19:22.596Z,9.11
2023-01-11T01:21:51.183Z,9.12
2023-01-11T01:24:18.202Z,9.16
2023-01-11T01:26:45.497Z,9.15
2023-01-11T01:29:13.592Z,9.12
2023-01-11T01:31:40.808Z,9.14
2023-01-11T01:34:09.122Z,9.19
2023-01-11T01:36:36.096Z,9.15
2023-01-11T01:39:04.285Z,9.17
2023-01-11T01:41:31.200Z,9.09
2023-01-11T01:44:00.910Z,9.11
2023-01-11T01:46:30.270Z,9.08
2023-01-11T01:49:12.370Z,9.07
2023-01-11T01:51:41.777Z,9.02
2023-01-11T01:54:13.030Z,8.99
2023-01-11T01:56:50.016Z,8.98
2023-01-11T01:59:18.397Z,8.99
2023-01-11T02:01:48.943Z,8.97
2023-01-11T02:04:41.066Z,8.98
2023-01-11T02:07:39.085Z,9.03
2023-01-11T02:10:14.423Z,9.02
2023-01-11T02:12:46.923Z,9.04
2023-01-11T02:15:14.719Z,9.02
2023-01-11T02:17:41.430Z,8.99
2023-01-11T02:20:23.477Z,8.99
2023-01-11T02:23:02.233Z,8.98
2023-01-11T02:26:06.814Z,8.98
2023-01-11T02:28:59.362Z,9.00
2023-01-11T02:31:34.654Z,8.97
2023-01-11T02:34:16.523Z,8.98
2023-01-11T02:37:15.073Z,8.94
2023-01-11T02:40:07.571Z,8.94
2023-01-11T02:43:10.403Z,8.89
2023-01-11T02:46:01.059Z,8.90
2023-01-11T02:48:54.055Z,8.90
2023-01-11T02:51:35.650Z,8.88
2023-01-11T02:54:08.116Z,8.87
2023-01-11T02:56:40.749Z,8.85
2023-01-11T02:59:11.525Z,8.82
2023-01-11T03:01:46.167Z,8.81
2023-01-11T03:04:42.149Z,8.81
2023-01-11T03:07:57.339Z,8.82
2023-01-11T03:10:54.953Z,8.84
2023-01-11T03:14:04.749Z,8.83
2023-01-11T03:16:40.620Z,8.83
2023-01-11T03:19:33.340Z,8.83
2023-01-11T03:22:43.539Z,8.77
2023-01-11T03:25:31.355Z,8.75
2023-01-11T03:27:57.959Z,8.71
2023-01-11T03:30:30.894Z,8.68
2023-01-11T03:33:11.010Z,8.71
2023-01-11T03:35:37.697Z,8.69
2023-01-11T03:38:11.800Z,8.67
2023-01-11T03:40:44.769Z,8.65
2023-01-11T03:43:18.808Z,8.66
2023-01-11T03:46:07.473Z,8.66
2023-01-11T03:48:39.529Z,8.65
2023-01-11T03:51:12.449Z,8.63
2023-01-11T03:53:43.770Z,8.60
2023-01-11T03:56:12.833Z,8.62
2023-01-11T03:58:39.543Z,8.61
2023-01-11T04:01:06.789Z,8.59
2023-01-11T04:03:33.611Z,8.56
2023-01-11T04:06:01.909Z,8.56
2023-01-11T04:08:29.145Z,8.53
2023-01-11T04:10:56.076Z,8.54
2023-01-11T04:13:22.683Z,8.55
2023-01-11T04:15:49.437Z,8.57
2023-01-11T04:18:16.398Z,8.58
2023-01-11T04:20:43.058Z,8.60
2023-01-11T04:23:10.627Z,8.58
2023-01-11T04:25:37.249Z,8.62
2023-01-11T04:28:03.889Z,8.63
2023-01-11T04:30:30.638Z,8.65
2023-01-11T04:32:59.269Z,8.66
2023-01-11T04:35:26.357Z,8.61
2023-01-11T04:37:58.107Z,8.66
2023-01-11T04:40:25.217Z,8.67
2023-01-11T04:42:51.838Z,8.66
2023-01-11T04:45:18.783Z,8.67
2023-01-11T04:47:45.417Z,8.68
2023-01-11T04:50:12.361Z,8.68
2023-01-11T04:52:41.790Z,8.67
2023-01-11T04:55:09.224Z,8.64
2023-01-11T04:57:36.245Z,8.68
2023-01-11T05:00:08.103Z,8.69
2023-01-11T05:02:34.813Z,8.66
2023-01-11T05:05:01.422Z,8.66
2023-01-11T05:07:28.334Z,8.68
2023-01-11T05:09:54.904Z,8.70
2023-01-11T05:12:21.527Z,8.68
2023-01-11T05:14:48.246Z,8.68
2023-01-11T05:17:15.966Z,8.66
2023-01-11T05:19:43.241Z,8.67
2023-01-11T05:22:10.437Z,8.67
2023-01-11T05:24:37.045Z,8.66
2023-01-11T05:27:04.180Z,8.67
2023-01-11T05:29:30.995Z,8.63
2023-01-11T05:31:57.713Z,8.65
2023-01-11T05:34:24.306Z,8.64
2023-01-11T05:36:51.207Z,8.60
2023-01-11T05:39:18.019Z,8.67
2023-01-11T05:41:44.648Z,8.67
2023-01-11T05:44:32.201Z,8.67
2023-01-11T05:46:59.529Z,8.67
2023-01-11T05:49:26.467Z,8.68
2023-01-11T05:51:53.272Z,8.65
2023-01-11T05:54:20.137Z,8.66
2023-01-11T05:56:46.992Z,8.67
2023-01-11T05:59:18.213Z,8.65
2023-01-11T06:01:44.833Z,8.60
2023-01-11T06:04:11.462Z,8.60
2023-01-11T06:06:38.264Z,8.62
2023-01-11T06:09:05.016Z,8.59
2023-01-11T06:11:31.889Z,8.56
2023-01-11T06:13:58.930Z,8.60
2023-01-11T06:16:25.776Z,8.55
2023-01-11T06:18:53.716Z,8.56
2023-01-11T06:21:20.957Z,8.55
2023-01-11T06:23:50.880Z,8.57
2023-01-11T06:26:20.939Z,8.57
2023-01-11T06:28:48.099Z,8.57
2023-01-11T06:31:17.363Z,8.58
2023-01-11T06:33:45.341Z,8.61
2023-01-11T06:36:13.789Z,8.63
2023-01-11T06:38:40.634Z,8.64
2023-01-11T06:41:08.951Z,8.67
2023-01-11T06:43:37.812Z,8.68
2023-01-11T06:46:05.168Z,8.70
2023-01-11T06:48:32.072Z,8.75
2023-01-11T06:50:59.189Z,8.68
2023-01-11T06:53:29.013Z,8.79
2023-01-11T06:55:58.625Z,8.82
2023-01-11T06:58:30.486Z,8.79
2023-01-11T07:00:58.892Z,8.80
2023-01-11T07:03:26.182Z,8.85
2023-01-11T07:05:56.786Z,8.85
2023-01-11T07:08:24.734Z,8.84
2023-01-11T07:10:51.869Z,8.84
2023-01-11T07:13:19.027Z,8.87
2023-01-11T07:15:51.966Z,8.88
2023-01-11T07:18:20.051Z,8.92
2023-01-11T07:20:47.134Z,8.91
2023-01-11T07:23:14.203Z,8.90
2023-01-11T07:25:41.370Z,8.95
2023-01-11T07:28:09.698Z,8.98
2023-01-11T07:30:55.609Z,8.98
2023-01-11T07:33:23.767Z,9.01
2023-01-11T07:35:50.733Z,9.03
2023-01-11T07:38:17.436Z,9.05
2023-01-11T07:40:44.452Z,9.05
2023-01-11T07:43:15.980Z,9.13
2023-01-11T07:45:46.748Z,9.19
2023-01-11T07:48:20.792Z,9.22
2023-01-11T07:50:49.341Z,9.27
2023-01-11T07:53:16.914Z,9.29
2023-01-11T07:55:43.799Z,9.33
2023-01-11T07:58:12.317Z,9.39
2023-01-11T08:00:40.858Z,9.39
2023-01-11T08:03:08.483Z,9.40
2023-01-11T08:05:35.359Z,9.35
2023-01-11T08:08:02.143Z,9.41
2023-01-11T08:10:29.129Z,9.44
2023-01-11T08:13:14.471Z,9.40
2023-01-11T08:15:43.972Z,9.48
2023-01-11T08:18:12.668Z,9.52
2023-01-11T08:20:40.828Z,9.53
2023-01-11T08:23:09.968Z,9.57
2023-01-11T08:25:37.033Z,9.57
2023-01-11T08:28:06.871Z,9.61
2023-01-11T08:30:34.070Z,9.59
2023-01-11T08:33:01.764Z,9.65
2023-01-11T08:35:29.549Z,9.68
2023-01-11T08:37:56.356Z,9.66
2023-01-11T08:40:25.404Z,9.77
2023-01-11T08:42:58.771Z,9.80
2023-01-11T08:45:25.785Z,9.84
2023-01-11T08:47:53.328Z,9.87
2023-01-11T08:50:21.389Z,9.90
2023-01-11T08:52:50.925Z,9.92
2023-01-11T08:55:18.875Z,9.98
2023-01-11T08:57:46.098Z,10.04
2023-01-11T09:00:13.585Z,10.07
2023-01-11T09:02:40.299Z,10.13
2023-01-11T09:05:07.665Z,10.14
2023-01-11T09:07:34.354Z,10.22
2023-01-11T09:10:01.024Z,10.26
2023-01-11T09:12:28.001Z,10.23
2023-01-11T09:14:54.624Z,10.26
2023-01-11T09:17:21.352Z,10.30
2023-01-11T09:19:48.451Z,10.32
2023-01-11T09:22:15.410Z,10.30
2023-01-11T09:24:42.087Z,10.26
2023-01-11T09:27:09.046Z,10.27
2023-01-11T09:29:37.471Z,10.26
2023-01-11T09:32:04.746Z,10.22
2023-01-11T09:34:31.825Z,10.21
2023-01-11T09:37:00.814Z,10.23
2023-01-11T09:39:28.805Z,10.23
2023-01-11T09:42:15.393Z,10.27
2023-01-11T09:44:51.290Z,10.27
2023-01-11T09:47:45.045Z,10.24
2023-01-11T09:50:16.640Z,10.25
2023-01-11T09:52:47.773Z,10.22
2023-01-11T09:55:20.185Z,10.21
2023-01-11T09:58:10.539Z,10.23
2023-01-11T10:01:01.555Z,10.25
2023-01-11T10:03:38.230Z,10.23
2023-01-11T10:06:10.663Z,10.25
2023-01-11T10:18:28.171Z,10.32
2023-01-11T10:18:32.240Z,10.30
2023-01-11T10:20:56.324Z,10.35
2023-01-11T10:23:32.220Z,10.35
2023-01-11T10:26:05.127Z,10.37
2023-01-11T10:28:47.021Z,10.43
2023-01-11T10:31:36.556Z,10.45
2023-01-11T10:34:24.770Z,10.52
2023-01-11T10:37:27.103Z,10.53
2023-01-11T10:40:16.434Z,10.61
2023-01-11T10:43:13.209Z,10.59
2023-01-11T10:45:46.378Z,10.68
2023-01-11T10:48:20.929Z,10.71
2023-01-11T10:50:54.054Z,10.75
2023-01-11T10:53:29.459Z,10.76
2023-01-11T10:56:12.769Z,10.77
2023-01-11T10:59:09.304Z,10.76
2023-01-11T11:01:50.240Z,10.77
2023-01-11T11:04:39.413Z,10.79
2023-01-11T11:07:24.343Z,10.83
2023-01-11T11:09:59.149Z,10.86
2023-01-11T11:12:29.924Z,10.87
2023-01-11T11:15:23.778Z,10.90
2023-01-11T11:17:52.924Z,10.93
2023-01-11T11:20:21.580Z,10.94
2023-01-11T11:22:51.101Z,10.94
2023-01-11T11:25:17.792Z,10.94
2023-01-11T11:27:49.216Z,10.89
2023-01-11T11:30:28.399Z,10.88
2023-01-11T11:33:00.773Z,10.91
2023-01-11T11:36:02.362Z,10.96
2023-01-11T11:38:31.384Z,10.98
2023-01-11T11:41:04.118Z,11.01
2023-01-11T11:43:33.123Z,11.01
2023-01-11T11:46:02.183Z,11.01
2023-01-11T11:48:32.298Z,11.00
2023-01-11T11:51:03.761Z,11.00
2023-01-11T11:53:52.051Z,10.97
2023-01-11T11:56:25.380Z,11.00
2023-01-11T11:58:53.352Z,10.98
2023-01-11T12:01:29.815Z,11.03
2023-01-11T12:04:20.109Z,11.04
2023-01-11T12:07:10.739Z,11.08
2023-01-11T12:09:42.434Z,11.12
2023-01-11T12:12:16.981Z,11.16
2023-01-11T12:14:44.381Z,11.16
2023-01-11T12:17:25.915Z,11.22
2023-01-11T12:19:52.672Z,11.22
2023-01-11T12:22:22.252Z,11.22
2023-01-11T12:25:04.899Z,11.24
2023-01-11T12:27:55.423Z,11.23
2023-01-11T12:30:31.332Z,11.21
2023-01-11T12:33:07.885Z,11.21
2023-01-11T12:35:35.369Z,11.16
2023-01-11T12:38:07.901Z,11.13
2023-01-11T12:40:53.871Z,11.10
2023-01-11T12:43:20.438Z,11.08
2023-01-11T12:45:52.875Z,11.06
2023-01-11T12:48:28.758Z,11.05
2023-01-11T12:51:10.630Z,11.04
2023-01-11T12:54:18.648Z,11.04
2023-01-11T12:57:07.538Z,11.03
2023-01-11T12:59:58.639Z,10.99
2023-01-11T13:02:46.977Z,10.99
2023-01-11T13:05:23.668Z,10.97
2023-01-11T13:08:05.374Z,10.95
2023-01-11T13:10:48.889Z,10.92
2023-01-11T13:13:24.553Z,10.89
2023-01-11T13:15:52.415Z,10.87
2023-01-11T13:18:34.229Z,10.82
2023-01-11T13:21:28.931Z,10.78
2023-01-11T13:24:02.294Z,10.78
2023-01-11T13:26:42.977Z,10.78
2023-01-11T13:29:39.241Z,10.78
2023-01-11T13:32:17.639Z,10.74
2023-01-11T13:34:50.950Z,10.73
2023-01-11T13:37:29.908Z,10.76
2023-01-11T13:39:59.599Z,10.75
2023-01-11T13:42:36.460Z,10.67
2023-01-11T13:45:30.422Z,10.70
2023-01-11T13:48:06.358Z,10.67
2023-01-11T13:50:47.389Z,10.65
2023-01-11T13:53:42.439Z,10.63
2023-01-11T13:56:30.664Z,10.62
2023-01-11T13:59:00.786Z,10.60
2023-01-11T14:01:38.473Z,10.56
2023-01-11T14:04:37.435Z,10.59
2023-01-11T14:07:26.563Z,10.57
2023-01-11T14:10:20.754Z,10.57
2023-01-11T14:13:06.400Z,10.55
2023-01-11T14:15:39.375Z,10.53
2023-01-11T14:18:11.840Z,10.54
2023-01-11T14:21:09.346Z,10.51
2023-01-11T14:23:50.806Z,10.49
2023-01-11T14:26:39.683Z,10.45
2023-01-11T14:29:12.188Z,10.41
2023-01-11T14:32:04.201Z,10.33
2023-01-11T14:34:56.716Z,10.22
2023-01-11T14:38:00.902Z,10.14
2023-01-11T14:40:51.200Z,10.00
2023-01-11T14:43:34.114Z,9.85
2023-01-11T14:46:21.759Z,9.77
2023-01-11T14:49:06.359Z,9.62
2023-01-11T14:51:59.410Z,9.59
2023-01-11T14:54:30.804Z,9.42
2023-01-11T14:56:59.363Z,9.34
2023-01-11T14:59:28.991Z,9.21
2023-01-11T15:02:05.262Z,9.11
2023-01-11T15:04:59.115Z,9.01
2023-01-11T15:07:36.801Z,8.91
2023-01-11T15:10:29.760Z,8.78
2023-01-11T15:12:57.434Z,8.63
2023-01-11T15:15:48.332Z,8.47
2023-01-11T15:18:22.727Z,8.34
2023-01-11T15:21:06.763Z,8.20
2023-01-11T15:23:38.695Z,8.07
2023-01-11T15:26:09.612Z,7.95
2023-01-11T15:28:58.716Z,7.86
2023-01-11T15:31:34.347Z,7.68
2023-01-11T15:34:27.519Z,7.57
2023-01-11T15:37:17.128Z,7.43
2023-01-11T15:39:54.464Z,7.28
2023-01-11T15:42:45.164Z,7.16
2023-01-11T15:45:30.472Z,7.08
2023-01-11T15:48:06.081Z,6.96
2023-01-11T15:50:51.789Z,6.84
2023-01-11T15:53:30.721Z,6.74
2023-01-11T15:56:37.581Z,6.63
2023-01-11T15:59:35.234Z,6.51
2023-01-11T16:02:05.011Z,6.40
2023-01-11T16:04:39.426Z,6.31
2023-01-11T16:07:20.537Z,6.22
2023-01-11T16:09:50.023Z,6.17
2023-01-11T16:12:35.948Z,6.12
2023-01-11T16:15:21.230Z,6.04
2023-01-11T16:17:48.748Z,5.95
2023-01-11T16:20:21.278Z,5.97
2023-01-11T16:22:53.649Z,5.98
2023-01-11T16:25:22.565Z,5.99
2023-01-11T16:27:55.551Z,6.00
2023-01-11T16:30:22.844Z,5.95
2023-01-11T16:32:49.727Z,5.92
2023-01-11T16:35:22.330Z,5.86
2023-01-11T16:38:01.509Z,5.80
2023-01-11T16:40:42.781Z,5.81
2023-01-11T16:43:30.743Z,5.80
2023-01-11T16:45:57.577Z,5.77
2023-01-11T16:48:28.626Z,5.74
2023-01-11T16:50:58.564Z,5.76
2023-01-11T16:53:26.812Z,5.75
2023-01-11T16:55:56.563Z,5.78
2023-01-11T16:58:32.708Z,5.70
2023-01-11T17:01:02.912Z,5.69
2023-01-11T17:03:32.656Z,5.65
2023-01-11T17:06:13.773Z,5.65
2023-01-11T17:08:50.104Z,5.62
2023-01-11T17:11:37.186Z,5.59
2023-01-11T17:14:10.368Z,5.62
2023-01-11T17:16:47.062Z,5.61
2023-01-11T17:19:22.053Z,5.63
2023-01-11T17:21:52.629Z,5.60
2023-01-11T17:24:27.048Z,5.57
2023-01-11T17:27:00.483Z,5.60
2023-01-11T17:29:38.408Z,5.57
2023-01-11T17:32:08.529Z,5.57
2023-01-11T17:34:38.074Z,5.52
2023-01-11T17:37:11.408Z,5.56
2023-01-11T17:39:42.338Z,5.55
2023-01-11T17:42:51.859Z,5.54
2023-01-11T17:45:22.025Z,5.51
2023-01-11T17:47:51.426Z,5.58
2023-01-11T17:50:31.865Z,5.61
2023-01-11T17:53:21.051Z,5.64
2023-01-11T17:55:55.135Z,5.63
2023-01-11T17:58:26.453Z,5.65
2023-01-11T18:01:08.906Z,5.67
2023-01-11T18:03:59.106Z,5.65
2023-01-11T18:06:42.160Z,5.62
2023-01-11T18:09:26.833Z,5.63
2023-01-11T18:11:54.416Z,5.62
2023-01-11T18:14:25.046Z,5.63
2023-01-11T18:16:56.652Z,5.60
2023-01-11T18:19:33.546Z,5.66
2023-01-11T18:22:00.845Z,5.64
2023-01-11T18:24:31.231Z,5.61
2023-01-11T18:27:19.235Z,5.62
2023-01-11T18:29:47.547Z,5.60
2023-01-11T18:32:15.198Z,5.57
2023-01-11T18:34:44.932Z,5.57
2023-01-11T18:37:11.967Z,5.54
2023-01-11T18:39:40.196Z,5.56
2023-01-11T18:42:09.786Z,5.55
2023-01-11T18:44:39.422Z,5.54
2023-01-11T18:47:24.950Z,5.53
2023-01-11T18:49:53.307Z,5.51
2023-01-11T18:52:21.771Z,5.47
2023-01-11T18:54:48.515Z,5.43
2023-01-11T18:57:15.223Z,5.45
2023-01-11T18:59:42.885Z,5.43
2023-01-11T19:02:24.113Z,5.41
2023-01-11T19:04:51.575Z,5.40
2023-01-11T19:07:19.010Z,5.40
2023-01-11T19:09:49.087Z,5.38
2023-01-11T19:12:16.128Z,5.33
2023-01-11T19:14:43.386Z,5.33
2023-01-11T19:17:11.460Z,5.33
2023-01-11T19:19:38.625Z,5.32
2023-01-11T19:22:06.212Z,5.37
2023-01-11T19:24:33.869Z,5.41
2023-01-11T19:27:00.942Z,5.40
2023-01-11T19:29:27.859Z,5.42
2023-01-11T19:31:58.493Z,5.37
2023-01-11T19:34:25.556Z,5.37
2023-01-11T19:36:53.290Z,5.32
2023-01-11T19:39:20.110Z,5.27
2023-01-11T19:42:01.420Z,5.24
2023-01-11T19:44:34.199Z,5.15
2023-01-11T19:47:11.638Z,5.11
2023-01-11T19:49:43.081Z,5.05
2023-01-11T19:52:13.935Z,5.03
2023-01-11T19:54:44.953Z,4.96
2023-01-11T19:57:14.440Z,4.89
2023-01-11T19:59:41.729Z,4.87
2023-01-11T20:02:11.323Z,4.87
2023-01-11T20:04:38.330Z,4.81
2023-01-11T20:07:06.081Z,4.82
2023-01-11T20:09:33.758Z,4.82
2023-01-11T20:12:00.376Z,4.83
2023-01-11T20:14:27.021Z,4.77
2023-01-11T20:16:54.233Z,4.74
2023-01-11T20:19:21.187Z,4.73
2023-01-11T20:21:47.786Z,4.66
2023-01-11T20:24:15.509Z,4.63
2023-01-11T20:26:42.675Z,4.56
2023-01-11T20:29:09.486Z,4.54
2023-01-11T20:31:36.717Z,4.51
2023-01-11T20:34:10.275Z,4.46
2023-01-11T20:36:37.949Z,4.47
2023-01-11T20:39:05.613Z,4.47
2023-01-11T20:41:47.477Z,4.40
2023-01-11T20:44:23.954Z,4.48
2023-01-11T20:46:52.714Z,4.47
2023-01-11T20:49:22.524Z,4.46
2023-01-11T20:51:49.656Z,4.48
2023-01-11T20:54:16.816Z,4.48
2023-01-11T20:56:46.644Z,4.49
2023-01-11T20:59:19.971Z,4.51
2023-01-11T21:01:48.118Z,4.51
2023-01-11T21:04:16.139Z,4.52
2023-01-11T21:06:46.411Z,4.50
2023-01-11T21:09:15.251Z,4.46
2023-01-11T21:11:42.091Z,4.44
2023-01-11T21:14:12.540Z,4.38
2023-01-11T21:16:43.129Z,4.39
2023-01-11T21:19:15.297Z,4.34
2023-01-11T21:21:43.697Z,4.19
2023-01-11T21:24:13.150Z,4.19
2023-01-11T21:26:42.140Z,4.14
2023-01-11T21:29:11.674Z,4.07
2023-01-11T21:31:39.290Z,4.03
2023-01-11T21:34:06.524Z,3.81
2023-01-11T21:36:34.476Z,3.91
2023-01-11T21:39:02.706Z,3.86
2023-01-11T21:41:50.913Z,3.81
2023-01-11T21:44:18.838Z,3.77
2023-01-11T21:46:46.055Z,3.69
2023-01-11T21:49:14.576Z,3.60
2023-01-11T21:51:42.427Z,3.57
2023-01-11T21:54:12.962Z,3.53
2023-01-11T21:56:42.260Z,3.53
2023-01-11T21:59:11.134Z,3.50
2023-01-11T22:01:39.548Z,3.48
2023-01-11T22:04:11.315Z,3.36
2023-01-11T22:06:42.989Z,3.35
2023-01-11T22:09:11.911Z,3.33
2023-01-11T22:11:39.826Z,3.26
2023-01-11T22:14:08.799Z,3.22
2023-01-11T22:16:36.577Z,3.11
2023-01-11T22:19:06.267Z,3.09
2023-01-11T22:21:33.313Z,3.04
2023-01-11T22:24:00.073Z,2.96
2023-01-11T22:26:27.950Z,2.92
2023-01-11T22:29:15.086Z,2.92
2023-01-11T22:31:43.431Z,2.87
2023-01-11T22:34:11.683Z,2.84
2023-01-11T22:36:40.659Z,2.79
2023-01-11T22:39:07.446Z,2.73
2023-01-11T22:41:34.410Z,2.69
2023-01-11T22:44:01.473Z,2.72
2023-01-11T22:46:28.905Z,2.69
2023-01-11T22:48:55.842Z,2.65
2023-01-11T22:51:24.668Z,2.60
2023-01-11T22:53:52.621Z,2.55
2023-01-11T22:56:22.291Z,2.52
2023-01-11T22:58:55.482Z,2.50
2023-01-11T23:01:41.652Z,2.42
2023-01-11T23:04:11.951Z,2.42
2023-01-11T23:06:40.479Z,2.42
2023-01-11T23:09:09.610Z,2.41
2023-01-11T23:11:56.518Z,2.41
2023-01-11T23:14:28.119Z,2.35
2023-01-11T23:16:55.137Z,2.32
2023-01-11T23:19:21.862Z,2.28
2023-01-11T23:21:48.532Z,2.27
2023-01-11T23:24:16.603Z,2.24
2023-01-11T23:26:44.768Z,2.22
2023-01-11T23:29:11.731Z,2.21
2023-01-11T23:31:38.913Z,2.18
2023-01-11T23:34:08.418Z,2.18
2023-01-11T23:36:38.201Z,2.17
2023-01-11T23:39:06.757Z,2.15
2023-01-11T23:41:52.289Z,2.12
2023-01-11T23:44:19.146Z,2.11
2023-01-11T23:47:05.048Z,2.11
2023-01-11T23:49:32.744Z,2.10
2023-01-11T23:52:00.375Z,2.11
2023-01-11T23:54:30.327Z,2.12
2023-01-11T23:56:58.070Z,2.10
2023-01-11T23:59:25.141Z,2.07
